createdAt,value
2019-04-22T00:00:36.535Z,41.13
2019-04-22T00:03:08.970Z,42.20
2019-04-22T00:05:56.288Z,43.63
2019-04-22T00:08:43.261Z,44.50
2019-04-22T00:11:23.093Z,44.33
2019-04-22T00:13:52.052Z,47.43
2019-04-22T00:16:19.259Z,46.23
2019-04-22T00:21:26.229Z,44.00
2019-04-22T00:23:59.742Z,46.60
2019-04-22T00:26:34.126Z,45.00
2019-04-22T00:29:21.274Z,43.80
2019-04-22T00:31:41.686Z,48.97
2019-04-22T00:34:21.302Z,50.17
2019-04-22T00:36:48.353Z,44.63
2019-04-22T00:39:33.864Z,43.50
2019-04-22T00:41:57.186Z,49.17
2019-04-22T00:44:31.839Z,52.37
2019-04-22T00:47:01.801Z,50.23
2019-04-22T00:50:06.647Z,54.20
2019-04-22T00:52:09.581Z,47.90
2019-04-22T00:54:41.689Z,54.17
2019-04-22T00:57:08.737Z,47.50
2019-04-22T00:59:40.401Z,54.37
2019-04-22T01:02:13.109Z,52.63
2019-04-22T01:04:47.514Z,55.00
2019-04-22T01:07:17.740Z,55.20
2019-04-22T01:09:51.986Z,52.30
2019-04-22T01:12:20.308Z,49.57
2019-04-22T01:14:49.523Z,52.70
2019-04-22T01:17:25.817Z,53.97
2019-04-22T01:20:29.346Z,49.57
2019-04-22T01:22:38.336Z,51.37
2019-04-22T01:25:03.671Z,49.23
2019-04-22T01:27:31.111Z,48.63
2019-04-22T01:30:00.991Z,55.37
2019-04-22T01:32:27.671Z,51.70
2019-04-22T01:35:09.809Z,55.73
2019-04-22T01:38:31.450Z,50.80
2019-04-22T01:41:07.116Z,51.37
2019-04-22T01:43:54.385Z,52.50
2019-04-22T01:46:19.731Z,48.93
2019-04-22T01:48:57.770Z,54.50
2019-04-22T01:51:35.618Z,52.23
2019-04-22T01:54:10.430Z,51.67
2019-04-22T01:56:38.983Z,47.03
2019-04-22T01:58:54.873Z,48.90
2019-04-22T02:01:39.704Z,50.20
2019-04-22T02:04:08.871Z,52.53
2019-04-22T02:06:46.289Z,49.10
2019-04-22T02:09:20.398Z,50.77
2019-04-22T02:11:48.733Z,47.37
2019-04-22T02:14:19.852Z,48.53
2019-04-22T02:16:52.700Z,52.77
2019-04-22T02:21:56.597Z,47.20
2019-04-22T02:24:34.633Z,47.97
2019-04-22T02:27:08.900Z,48.83
2019-04-22T02:29:34.876Z,46.23
2019-04-22T02:34:50.433Z,48.67
2019-04-22T02:37:21.243Z,49.67
2019-04-22T02:42:16.638Z,45.87
2019-04-22T02:50:02.334Z,42.67
2019-04-22T02:52:35.395Z,45.07
2019-04-22T02:55:16.575Z,43.33
2019-04-22T02:57:39.691Z,48.33
2019-04-22T03:00:21.889Z,47.00
2019-04-22T03:03:03.779Z,42.70
2019-04-22T03:05:28.007Z,44.10
2019-04-22T03:07:58.559Z,48.07
2019-04-22T03:10:35.506Z,45.87
2019-04-22T03:13:00.572Z,47.40
2019-04-22T03:15:42.585Z,43.37
2019-04-22T03:18:27.179Z,43.87
2019-04-22T03:20:50.057Z,45.57
2019-04-22T03:26:11.962Z,46.57
2019-04-22T03:28:43.890Z,45.27
2019-04-22T03:47:17.610Z,44.43
2019-04-22T03:57:48.825Z,42.90
2019-04-22T04:00:02.593Z,43.97
2019-04-22T04:02:38.916Z,41.70
2019-04-22T04:05:07.232Z,41.87
2019-04-22T04:07:48.463Z,42.50
2019-04-22T04:10:19.271Z,44.93
2019-04-22T04:12:54.000Z,41.30
2019-04-22T04:18:06.846Z,43.57
2019-04-22T04:23:30.940Z,40.17
2019-04-22T04:28:55.316Z,41.57
2019-04-22T04:31:06.530Z,43.93
2019-04-22T04:33:38.876Z,44.63
2019-04-22T04:36:14.639Z,43.37
2019-04-22T04:38:45.462Z,41.93
2019-04-22T04:41:26.762Z,41.13
2019-04-22T04:43:52.576Z,39.53
2019-04-22T04:46:33.750Z,40.70
2019-04-22T04:49:00.348Z,44.50
2019-04-22T04:54:04.304Z,43.63
2019-04-22T04:56:35.874Z,39.93
2019-04-22T04:59:16.795Z,48.60
2019-04-22T05:06:51.564Z,40.47
2019-04-22T05:12:16.735Z,46.27
2019-04-22T05:17:18.463Z,47.83
2019-04-22T05:19:26.385Z,43.60
2019-04-22T05:21:59.502Z,47.83
2019-04-22T05:24:35.033Z,41.43
2019-04-22T05:27:05.253Z,45.00
2019-04-22T05:29:54.079Z,46.47
2019-04-22T05:34:45.712Z,41.50
2019-04-22T05:37:14.552Z,42.97
2019-04-22T05:39:43.619Z,42.23
2019-04-22T05:42:17.984Z,42.23
2019-04-22T05:45:10.223Z,44.67
2019-04-22T05:47:26.184Z,42.33
2019-04-22T05:50:06.439Z,42.57
2019-04-22T05:52:31.655Z,39.30
2019-04-22T05:55:09.720Z,39.67
2019-04-22T05:57:38.291Z,39.30
2019-04-22T06:00:13.815Z,43.00
2019-04-22T06:05:16.886Z,36.03
2019-04-22T06:07:46.880Z,35.97
2019-04-22T06:10:35.794Z,34.63
2019-04-22T06:12:58.192Z,37.70
2019-04-22T06:15:42.979Z,36.07
2019-04-22T06:20:50.085Z,32.10
2019-04-22T06:23:19.011Z,30.60
2019-04-22T06:25:57.844Z,30.30
2019-04-22T06:28:32.079Z,27.47
2019-04-22T06:30:57.400Z,30.73
2019-04-22T06:33:38.600Z,29.90
2019-04-22T06:41:09.306Z,30.73
2019-04-22T06:43:35.579Z,26.97
2019-04-22T06:46:08.453Z,25.73
2019-04-22T06:49:09.638Z,24.30
2019-04-22T06:51:46.455Z,23.50
2019-04-22T06:54:28.409Z,24.07
2019-04-22T06:57:00.761Z,24.00
2019-04-22T06:59:37.645Z,23.53
2019-04-22T07:02:16.570Z,23.53
2019-04-22T07:04:52.008Z,23.97
2019-04-22T07:07:21.624Z,20.67
2019-04-22T07:09:58.489Z,18.47
2019-04-22T07:12:24.800Z,20.10
2019-04-22T07:14:59.985Z,17.73
2019-04-22T07:19:55.521Z,15.27
2019-04-22T07:22:33.901Z,14.83
2019-04-22T07:25:09.920Z,14.00
2019-04-22T07:27:40.678Z,14.00
2019-04-22T07:33:15.131Z,14.17
2019-04-22T07:35:33.067Z,12.03
2019-04-22T07:38:10.882Z,13.30
2019-04-22T07:40:45.733Z,11.53
2019-04-22T07:43:19.699Z,12.77
2019-04-22T07:45:49.375Z,16.10
2019-04-22T07:48:26.502Z,12.10
2019-04-22T07:53:35.822Z,11.43
2019-04-22T07:56:11.879Z,11.27
2019-04-22T07:58:43.298Z,12.73
2019-04-22T08:01:24.602Z,10.77
2019-04-22T08:04:05.483Z,13.57
2019-04-22T08:06:29.561Z,11.03
2019-04-22T08:09:07.935Z,11.47
2019-04-22T08:11:43.706Z,11.20
2019-04-22T08:14:07.494Z,9.07
2019-04-22T08:16:51.368Z,11.77
2019-04-22T08:19:20.541Z,11.40
2019-04-22T08:21:53.252Z,9.87
2019-04-22T08:24:29.331Z,9.87
2019-04-22T08:27:07.282Z,10.30
2019-04-22T08:29:50.547Z,11.67
2019-04-22T08:32:22.000Z,13.67
2019-04-22T08:34:55.639Z,11.43
2019-04-22T08:40:07.788Z,9.20
2019-04-22T08:42:43.435Z,8.10
2019-04-22T08:45:28.050Z,7.97
2019-04-22T08:48:01.371Z,8.30
2019-04-22T08:50:21.892Z,8.07
2019-04-22T08:52:57.674Z,9.27
2019-04-22T08:55:32.621Z,8.03
2019-04-22T09:00:43.600Z,10.10
2019-04-22T09:03:20.835Z,7.57
2019-04-22T09:08:32.241Z,7.03
2019-04-22T09:10:57.423Z,8.43
2019-04-22T09:13:35.502Z,8.73
2019-04-22T09:16:16.581Z,13.77
2019-04-22T09:21:30.570Z,6.97
2019-04-22T09:24:00.118Z,8.20
2019-04-22T15:38:51.341Z,5.53
2019-04-22T15:41:22.948Z,3.70
2019-04-22T15:43:54.160Z,5.87
2019-04-22T15:46:32.096Z,4.30
2019-04-22T15:49:07.836Z,3.87
2019-04-22T15:51:40.856Z,3.63
2019-04-22T15:54:13.869Z,2.77
2019-04-22T15:56:46.704Z,3.20
2019-04-22T15:59:38.969Z,2.57
2019-04-22T16:01:58.133Z,5.83
2019-04-22T16:04:28.513Z,3.13
2019-04-22T16:06:59.059Z,4.13
2019-04-22T16:09:47.864Z,5.53
2019-04-22T16:12:28.798Z,2.60
2019-04-22T16:14:56.969Z,3.37
2019-04-22T16:17:50.767Z,3.80
2019-04-22T16:20:30.077Z,3.63
2019-04-22T16:23:25.699Z,3.67
2019-04-22T16:26:07.325Z,4.37
2019-04-22T16:28:39.749Z,3.60
2019-04-22T16:31:13.478Z,5.23
2019-04-22T16:34:02.558Z,4.07
2019-04-22T16:36:34.469Z,3.70
2019-04-22T16:39:15.245Z,5.47
2019-04-22T16:41:50.813Z,2.93
2019-04-22T16:44:26.826Z,4.73
2019-04-22T16:47:01.459Z,3.63
2019-04-22T16:49:39.275Z,2.83
2019-04-22T16:52:18.304Z,4.13
2019-04-22T16:54:50.614Z,3.00
2019-04-22T16:57:21.911Z,5.03
2019-04-22T17:00:00.455Z,3.50
2019-04-22T17:02:49.795Z,2.30
2019-04-22T17:05:38.633Z,3.10
2019-04-22T17:08:14.187Z,3.03
2019-04-22T17:11:04.020Z,3.63
2019-04-22T17:13:50.186Z,3.47
2019-04-22T17:16:26.255Z,4.00
2019-04-22T17:19:06.032Z,6.80
2019-04-22T17:21:41.395Z,4.10
2019-04-22T17:24:14.393Z,5.60
2019-04-22T17:26:46.451Z,5.13
2019-04-22T17:29:24.536Z,3.63
2019-04-22T17:32:00.410Z,5.13
2019-04-22T17:34:31.802Z,5.43
2019-04-22T17:37:12.735Z,4.67
2019-04-22T17:40:17.960Z,3.33
2019-04-22T17:42:58.931Z,3.57
2019-04-22T17:45:58.463Z,3.47
2019-04-22T17:48:48.916Z,4.77
2019-04-22T17:51:34.487Z,4.40
2019-04-22T17:54:12.883Z,3.33
2019-04-22T17:56:48.597Z,3.50
2019-04-22T17:59:26.883Z,3.00
2019-04-22T18:01:56.688Z,5.97
2019-04-22T18:04:18.062Z,4.57
2019-04-22T18:07:18.438Z,4.97
2019-04-22T18:13:07.411Z,3.33
2019-04-22T18:15:43.622Z,5.10
2019-04-22T18:18:23.366Z,5.00
2019-04-22T18:20:56.414Z,3.23
2019-04-22T18:23:24.468Z,6.97
2019-04-22T18:26:26.226Z,3.60
2019-04-22T18:29:07.192Z,2.93
2019-04-22T18:31:40.907Z,4.20
2019-04-22T18:34:26.664Z,3.50
2019-04-22T18:37:09.374Z,3.67
2019-04-22T18:39:55.719Z,3.23
2019-04-22T18:42:24.162Z,2.53
2019-04-22T18:45:20.387Z,2.63
2019-04-22T18:47:32.300Z,4.70
2019-04-22T18:50:10.571Z,8.03
2019-04-22T18:53:10.990Z,6.10
2019-04-22T18:55:51.640Z,5.00
2019-04-22T18:58:34.422Z,2.40
2019-04-22T19:01:19.733Z,5.60
2019-04-22T19:04:14.117Z,5.07
2019-04-22T19:07:15.464Z,6.67
2019-04-22T19:10:21.150Z,3.13
2019-04-22T19:13:19.628Z,7.13
2019-04-22T19:15:36.810Z,3.70
2019-04-22T19:18:42.881Z,4.50
2019-04-22T19:21:44.512Z,3.50
2019-04-22T19:24:28.940Z,3.33
2019-04-22T19:27:02.981Z,4.17
2019-04-22T19:29:44.763Z,4.53
2019-04-22T19:32:27.835Z,3.83
2019-04-22T19:35:17.437Z,3.07
2019-04-22T19:37:53.865Z,6.73
2019-04-22T19:40:54.997Z,3.87
2019-04-22T19:43:33.133Z,2.27
2019-04-22T19:46:07.450Z,2.53
2019-04-22T19:48:50.032Z,2.83
2019-04-22T19:51:27.957Z,6.60
2019-04-22T19:53:56.081Z,2.90
2019-04-22T19:56:33.704Z,5.03
2019-04-22T19:59:12.195Z,5.40
2019-04-22T20:02:04.380Z,1.90
2019-04-22T20:05:06.545Z,4.03
2019-04-22T20:07:49.906Z,6.27
2019-04-22T20:10:29.607Z,2.33
2019-04-22T20:13:10.133Z,4.33
2019-04-22T20:15:34.554Z,2.80
2019-04-22T20:18:34.413Z,3.67
2019-04-22T20:20:58.474Z,6.57
2019-04-22T20:23:22.917Z,3.93
2019-04-22T20:25:51.043Z,3.53
2019-04-22T20:28:43.307Z,3.10
2019-04-22T20:31:18.576Z,1.43
2019-04-22T20:33:56.334Z,3.83
2019-04-22T20:36:44.992Z,1.77
2019-04-22T20:38:59.307Z,2.53
2019-04-22T20:42:17.797Z,5.37
2019-04-22T20:44:47.327Z,2.60
2019-04-22T20:47:16.471Z,4.40
2019-04-22T20:49:56.150Z,1.90
2019-04-22T20:52:36.355Z,4.97
2019-04-22T20:54:55.399Z,6.20
2019-04-22T20:57:34.920Z,4.53
2019-04-22T21:00:03.732Z,3.73
2019-04-22T21:02:40.188Z,6.43
2019-04-22T21:05:19.403Z,3.33
2019-04-22T21:08:08.041Z,2.63
2019-04-22T21:10:31.204Z,1.63
2019-04-22T21:13:05.516Z,4.07
2019-04-22T21:15:55.394Z,4.80
2019-04-22T21:18:13.469Z,2.87
2019-04-22T21:20:56.223Z,4.47
2019-04-22T21:23:23.134Z,3.80
2019-04-22T21:26:02.314Z,3.40
2019-04-22T21:28:41.843Z,4.83
2019-04-22T21:31:14.466Z,6.13
2019-04-22T21:37:20.791Z,3.80
2019-04-22T21:39:40.634Z,4.63
2019-04-22T21:42:21.515Z,4.27
2019-04-22T21:44:53.604Z,1.83
2019-04-22T21:47:46.182Z,5.70
2019-04-22T21:50:41.587Z,4.70
2019-04-22T21:53:06.761Z,3.60
2019-04-22T21:55:50.610Z,4.50
2019-04-22T21:58:36.647Z,4.57
2019-04-22T22:01:28.225Z,5.17
2019-04-22T22:04:02.597Z,4.43
2019-04-22T22:06:21.886Z,6.77
2019-04-22T22:09:13.579Z,3.33
2019-04-22T22:11:41.775Z,10.83
2019-04-22T22:14:11.679Z,6.33
2019-04-22T22:16:38.403Z,5.53
2019-04-22T22:19:17.792Z,4.27
2019-04-22T22:22:15.174Z,7.37
2019-04-22T22:24:41.461Z,8.00
2019-04-22T22:27:10.995Z,6.57
2019-04-22T22:30:05.556Z,1.97
2019-04-22T22:32:25.995Z,2.23
2019-04-22T22:34:57.068Z,6.27
2019-04-22T22:37:15.898Z,4.97
2019-04-22T22:39:48.432Z,5.67
2019-04-22T22:42:19.066Z,4.80
2019-04-22T22:44:48.501Z,4.50
2019-04-22T22:47:38.309Z,11.50
2019-04-22T22:50:10.927Z,4.97
2019-04-22T22:55:11.983Z,4.43
2019-04-22T22:57:44.281Z,7.30
2019-04-22T23:00:28.225Z,4.53
2019-04-22T23:03:23.295Z,11.87
2019-04-22T23:05:37.612Z,4.33
2019-04-22T23:08:09.614Z,3.73
2019-04-22T23:10:44.379Z,4.07
2019-04-22T23:13:18.998Z,1.90
2019-04-22T23:15:41.882Z,2.07
2019-04-22T23:17:56.171Z,2.63
2019-04-22T23:20:32.462Z,4.87
2019-04-22T23:23:21.839Z,6.10
2019-04-22T23:25:54.765Z,2.90
2019-04-22T23:28:34.880Z,4.00
2019-04-22T23:31:14.326Z,7.87
2019-04-22T23:34:15.768Z,3.57
2019-04-22T23:37:06.877Z,6.67
2019-04-22T23:39:52.214Z,6.00
2019-04-22T23:42:18.949Z,2.33
2019-04-22T23:44:41.895Z,4.80
2019-04-22T23:47:24.644Z,4.07
2019-04-22T23:50:01.066Z,2.03
2019-04-22T23:53:00.512Z,9.30
2019-04-22T23:55:33.249Z,3.07
2019-04-22T23:58:11.918Z,4.13
